Providence, Rhode Island
Traffic Map
Current Weather Conditions
Providence, Rhode Island
Few Clouds
Few Clouds
23°
Feels Like: 23°
Wind Chill: 23° Ceiling: Unl
Heat Index: 23° Visibility: 9mi
Dew Point: 22° Wind: 7mph
Humidity: 93% Direction: 270° (W)
Pressure: 29.8in Gusts: 0mph
Raw Report DataKPVD 310651Z AUTO 27006KT 9SM FEW070 FEW090 23/22 A2980 RMK AO2 SLP089 T02280217
Traffic Incident Summary
Active as of:
Severity:
Category:
InformationThere was an issue retrieving the traffic information for this location. Please try a different location or try again shortly.
Advertisements
Track Severe Weather on mobile